WAOOWALL

Guest
Details From WAOO - Banjarmasin Syamsudin Noor
To WALL - Balikpapan/Sepinggan
Flight Number -
Tags generated
Created
Modified
Stats Distance 183 nm / 339 km
Max Altitude 19,100 ft / 5,822 m
Waypoints 3
Social Downloads 8
Likes 0
Share VATSIM

Download

Looking for another format? Having issues loading an existing format? Contact us
Advertisement - Login to hide

Notes

Basic altitude profile: - Ascent Rate: 2500ft/min - Ascent Speed: 250kts - Cruise Altitude: 35000ft - Cruise Speed: 420kts - Descent Rate: 1500ft/min - Descent Speed: 250kts Options: - Use NATs: yes - Use PACOTS: yes - Use low airways: yes - Use high airways: yes

Route

WAOO BISOM WALL

ID Type Via Altitude Latitude Longitude Leg Dist Tot Dist Heading (true) Name
O WAOO APT - 0 ft / 0 m -3.44235˚ 114.76255˚ - 0 nm - Banjarmasin Syamsudin Noor
BISOM FIX - 19,100 ft / 5,822 m -2.32315˚ 115.84373˚ 93 nm 93 nm 44° / 44° -
O WALL APT - 0 ft / 0 m -1.26827˚ 116.89448˚ 89 nm 182 nm 45° / 45° Balikpapan/Sepinggan

Altitude Profile

Advertisement - Login to hide

Weather


0- 5 10 15 20 25 30 35+ Temperature / ° C

Clouds and Precipitation
Forecast for 2017-12-18 12:00 UTC. Updated 2 hours ago

Ground ~20,000 ft ~40,000 ft Winds

WAOO

Details ICAO WAOO (BDJ)
Name Banjarmasin Syamsudin Noor
Region Indonesia
Timezone Asia/Makassar (UTC+8.0)
Stats Elevation 66 ft / 20 m (AMSL)
Location -3.442354° 114.762552°
Runways 1
Magnetic Variation 0.719° E

METAR

WAOO 181030Z 24004KT 9999 SCT017 26/23 Q1009

Decode

TAF

Not found

Departure Runways

ID Width Length Bearing (true) Bearing (mag) Surface Threshold Offset Overrun Length
10 148 ft / 45 m 8,208 ft / 2,502 m 100.45° 99.73° Asphalt 0 ft / 0 m 200 ft / 61 m
28 148 ft / 45 m 8,208 ft / 2,502 m 280.45° 279.73° Asphalt 0 ft / 0 m 200 ft / 61 m

WALL

Details ICAO WALL (BPN)
Name Balikpapan/Sepinggan
Region Indonesia
Timezone Asia/Makassar (UTC+8.0)
Stats Elevation 12 ft / 4 m (AMSL)
Location -1.268272° 116.894478°
Runways 1
Magnetic Variation 0.473° E

METAR

WALL 181030Z VRB05KT 9999 FEW020 29/24 Q1008 TEMPO FEW020CB

Decode

TAF

Not found

Destination Runways

ID Width Length Bearing (true) Bearing (mag) Surface Threshold Offset Overrun Length
07 148 ft / 45 m 8,188 ft / 2,496 m 66.97° 66.50° Asphalt 0 ft / 0 m 197 ft / 60 m
25 148 ft / 45 m 8,188 ft / 2,496 m 246.97° 246.50° Asphalt 0 ft / 0 m 197 ft / 60 m

Approach Navaids

Runway Type Ident Frequency Range Bearing (true) Bearing (mag) Slope Elevation
25 Localiser IBPN 110.90 MHz 18 nm / 33 km 247.07° 246.59° - 12 ft / 4 m (AMSL)
25 Glidescope IBPN 110.90 MHz 10 nm / 19 km 246.97° 246.50° 3.00° 12 ft / 4 m (AMSL)